createdAt,value
2023-02-18T17:55:55.886Z,14.10
2023-02-18T17:56:55.807Z,14.10
2023-02-18T17:57:55.775Z,16.70
2023-02-18T17:58:55.702Z,15.80
2023-02-18T17:59:58.182Z,17.10
2023-02-18T18:00:55.717Z,19.40
2023-02-18T18:01:55.556Z,22.50
2023-02-18T18:02:55.509Z,20.40
2023-02-18T18:03:55.457Z,17.60
2023-02-18T18:04:55.428Z,19.40
2023-02-18T18:05:55.366Z,18.70
2023-02-18T18:06:55.323Z,18.30
2023-02-18T18:07:55.279Z,21.30
2023-02-18T18:08:55.237Z,21.60
2023-02-18T18:09:55.188Z,21.30
2023-02-18T18:10:55.149Z,20.00
2023-02-18T18:11:55.123Z,20.40
2023-02-18T18:12:55.043Z,20.60
2023-02-18T18:13:55.005Z,24.80
2023-02-18T18:14:54.977Z,19.60
2023-02-18T18:15:56.863Z,22.90
2023-02-18T18:16:54.907Z,19.80
2023-02-18T18:17:54.818Z,19.20
2023-02-18T18:18:54.774Z,18.70
2023-02-18T18:19:54.724Z,18.10
2023-02-18T18:20:54.694Z,17.70
2023-02-18T18:21:54.637Z,16.90
2023-02-18T18:22:54.596Z,15.90
2023-02-18T18:23:54.548Z,15.60
2023-02-18T18:24:54.501Z,17.60
2023-02-18T18:25:54.455Z,19.50
2023-02-18T18:26:54.412Z,17.40
2023-02-18T18:28:54.342Z,14.80
2023-02-18T18:29:54.279Z,17.30
2023-02-18T18:30:54.344Z,16.80
2023-02-18T18:31:54.466Z,17.60
2023-02-18T18:32:54.151Z,16.60
2023-02-18T18:33:54.114Z,17.60
2023-02-18T18:34:54.070Z,16.60
2023-02-18T18:35:54.015Z,17.20
2023-02-18T18:36:53.974Z,15.30
2023-02-18T18:37:53.921Z,18.30
2023-02-18T18:38:53.884Z,16.60
2023-02-18T18:39:53.836Z,16.30
2023-02-18T18:40:53.800Z,15.90
2023-02-18T18:41:53.742Z,15.70
2023-02-18T18:42:53.698Z,18.80
2023-02-18T18:43:53.654Z,15.60
2023-02-18T18:44:53.671Z,17.10
2023-02-18T18:45:53.612Z,15.90
2023-02-18T18:46:53.529Z,15.60
2023-02-18T18:47:53.473Z,13.70
2023-02-18T18:48:53.429Z,13.50
2023-02-18T18:49:53.379Z,16.20
2023-02-18T18:50:53.335Z,13.70
2023-02-18T18:51:54.849Z,12.40
2023-02-18T18:52:53.245Z,12.20
2023-02-18T18:53:53.202Z,12.80
2023-02-18T18:54:53.160Z,13.60
2023-02-18T18:55:53.105Z,15.00
2023-02-18T18:56:53.064Z,14.10
2023-02-18T18:57:53.015Z,14.00
2023-02-18T18:58:52.972Z,14.60
2023-02-18T18:59:52.924Z,12.90
2023-02-18T19:00:52.916Z,14.20
2023-02-18T19:01:52.905Z,14.80
2023-02-18T19:02:52.793Z,12.70
2023-02-18T19:03:52.744Z,12.40
2023-02-18T19:04:52.693Z,13.30
2023-02-18T19:05:52.662Z,13.00
2023-02-18T19:06:52.602Z,12.10
2023-02-18T19:07:52.558Z,13.80
2023-02-18T19:08:52.509Z,13.40
2023-02-18T19:09:52.462Z,11.50
2023-02-18T19:10:52.417Z,11.80
2023-02-18T19:11:52.367Z,12.00
2023-02-18T19:12:52.323Z,12.40
2023-02-18T19:13:52.283Z,10.80
2023-02-18T19:15:52.222Z,10.80
2023-02-18T19:16:52.161Z,11.20
2023-02-18T19:17:52.104Z,11.90
2023-02-18T19:18:52.057Z,14.10
2023-02-18T19:19:52.005Z,11.30
2023-02-18T19:20:51.956Z,12.00
2023-02-18T19:21:51.908Z,13.30
2023-02-18T19:22:51.874Z,13.00
2023-02-18T19:23:51.818Z,15.70
2023-02-18T19:24:51.770Z,12.20
2023-02-18T19:25:51.737Z,12.10
2023-02-18T19:26:51.677Z,12.70
2023-02-18T19:27:51.633Z,14.50
2023-02-18T19:28:51.595Z,13.00
2023-02-18T19:29:51.542Z,16.70
2023-02-18T19:30:51.573Z,14.00
2023-02-18T19:31:51.496Z,15.40
2023-02-18T19:32:51.428Z,16.30
2023-02-18T19:33:51.362Z,13.90
2023-02-18T19:34:51.310Z,16.50
2023-02-18T19:35:51.265Z,18.30
2023-02-18T19:36:51.227Z,17.00
2023-02-18T19:37:51.175Z,15.00
2023-02-18T19:38:51.132Z,16.10
2023-02-18T19:39:51.086Z,14.40
2023-02-18T19:40:51.044Z,16.00
2023-02-18T19:41:50.990Z,16.70
2023-02-18T19:42:50.945Z,16.20
2023-02-18T19:43:50.898Z,16.90
2023-02-18T19:44:50.854Z,16.70
2023-02-18T19:45:51.009Z,15.70
2023-02-18T19:46:50.765Z,15.70
2023-02-18T19:47:50.719Z,15.50
2023-02-18T19:48:50.713Z,14.90
2023-02-18T19:49:50.633Z,16.40
2023-02-18T19:51:50.536Z,18.50
2023-02-18T19:52:50.489Z,15.20
2023-02-18T19:53:50.442Z,18.00
2023-02-18T19:54:50.396Z,20.30
2023-02-18T19:55:50.349Z,16.50
2023-02-18T19:56:50.312Z,18.10
2023-02-18T19:57:50.279Z,17.30
2023-02-18T19:58:50.216Z,16.50
2023-02-18T19:59:50.163Z,19.90
2023-02-18T20:00:50.123Z,17.10
2023-02-18T20:01:50.134Z,15.60
2023-02-18T20:02:50.063Z,17.80
2023-02-18T20:03:49.982Z,17.60
2023-02-18T20:04:49.959Z,16.60
2023-02-18T20:05:49.890Z,16.90
2023-02-18T20:06:49.852Z,16.50
2023-02-18T20:07:49.798Z,18.10
2023-02-18T20:08:49.754Z,14.90
2023-02-18T20:09:49.742Z,19.10
2023-02-18T20:10:49.676Z,15.60
2023-02-18T20:11:49.619Z,17.20
2023-02-18T20:12:49.572Z,16.70
2023-02-18T20:13:49.526Z,16.40
2023-02-18T20:14:49.490Z,15.50
2023-02-18T20:15:49.500Z,19.30
2023-02-18T20:16:49.386Z,14.60
2023-02-18T20:17:49.340Z,17.60
2023-02-18T20:18:49.293Z,14.80
2023-02-18T20:19:49.243Z,21.30
2023-02-18T20:20:49.228Z,16.80
2023-02-18T20:21:49.162Z,14.80
2023-02-18T20:22:49.106Z,16.00
2023-02-18T20:24:49.017Z,15.20
2023-02-18T20:25:48.991Z,15.60
2023-02-18T20:26:48.921Z,14.90
2023-02-18T20:28:00.465Z,17.20
2023-02-18T20:28:48.832Z,16.10
2023-02-18T20:29:48.785Z,16.20
2023-02-18T20:30:48.737Z,16.50
2023-02-18T20:31:48.802Z,15.60
2023-02-18T20:32:48.654Z,17.60
2023-02-18T20:33:48.608Z,14.40
2023-02-18T20:34:48.554Z,15.60
2023-02-18T20:35:48.510Z,15.90
2023-02-18T20:36:48.482Z,18.10
2023-02-18T20:37:48.424Z,12.90
2023-02-18T20:38:48.372Z,15.00
2023-02-18T20:39:48.325Z,15.40
2023-02-18T20:40:48.285Z,15.40
2023-02-18T20:41:48.233Z,14.10
2023-02-18T20:42:48.189Z,14.50
2023-02-18T20:43:48.140Z,14.40
2023-02-18T20:44:48.095Z,16.70
2023-02-18T20:45:48.059Z,15.50
2023-02-18T20:46:48.021Z,17.00
2023-02-18T20:47:47.964Z,17.00
2023-02-18T20:48:47.912Z,19.60
2023-02-18T20:49:47.874Z,19.40
2023-02-18T20:50:47.822Z,17.20
2023-02-18T20:51:47.778Z,16.70
2023-02-18T20:52:47.750Z,16.50
2023-02-18T20:53:47.683Z,15.10
2023-02-18T20:54:47.633Z,16.60
2023-02-18T20:56:30.992Z,16.20
2023-02-18T20:57:30.944Z,16.30
2023-02-18T20:58:30.898Z,15.10
2023-02-18T20:59:30.852Z,20.10
2023-02-18T21:00:30.807Z,14.80
2023-02-18T21:01:30.778Z,19.20
2023-02-18T21:02:30.765Z,19.70
2023-02-18T21:03:30.667Z,16.20
